createdAt,value
2018-12-17T00:01:21.516Z,-0.37
2018-12-17T00:03:49.971Z,-0.40
2018-12-17T00:06:18.576Z,-0.35
2018-12-17T00:08:47.051Z,-0.25
2018-12-17T00:11:16.275Z,-0.17
2018-12-17T00:13:44.842Z,-0.09
2018-12-17T00:16:13.363Z,0.02
2018-12-17T00:18:41.823Z,0.04
2018-12-17T00:21:10.323Z,0.02
2018-12-17T00:23:38.792Z,-0.02
2018-12-17T00:26:09.532Z,-0.06
2018-12-17T00:28:38.010Z,-0.10
2018-12-17T00:31:06.495Z,-0.14
2018-12-17T00:33:34.939Z,-0.17
2018-12-17T00:36:03.542Z,-0.18
2018-12-17T00:38:31.992Z,-0.24
2018-12-17T00:41:00.482Z,-0.28
2018-12-17T00:43:29.183Z,-0.31
2018-12-17T00:45:57.833Z,-0.31
2018-12-17T00:48:26.442Z,-0.26
2018-12-17T00:50:55.057Z,-0.26
2018-12-17T00:53:23.535Z,-0.22
2018-12-17T00:55:52.037Z,-0.25
2018-12-17T00:58:20.480Z,-0.21
2018-12-17T01:00:48.972Z,-0.13
2018-12-17T01:03:17.458Z,-0.06
2018-12-17T01:05:45.995Z,-0.05
2018-12-17T01:08:14.475Z,-0.01
2018-12-17T01:10:42.963Z,0.01
2018-12-17T01:13:11.418Z,0.05
2018-12-17T01:15:39.916Z,0.05
2018-12-17T01:18:08.412Z,-0.06
2018-12-17T01:20:36.952Z,-0.15
2018-12-17T01:23:05.473Z,-0.22
2018-12-17T01:25:34.212Z,-0.24
2018-12-17T01:28:02.680Z,-0.29
2018-12-17T01:30:31.159Z,-0.27
2018-12-17T01:32:59.624Z,-0.31
2018-12-17T01:35:28.171Z,-0.31
2018-12-17T01:37:56.610Z,-0.26
2018-12-17T01:40:25.117Z,-0.19
2018-12-17T01:42:53.587Z,-0.17
2018-12-17T01:45:22.093Z,-0.17
2018-12-17T01:47:50.556Z,-0.16
2018-12-17T01:50:19.036Z,-0.06
2018-12-17T01:52:47.479Z,0.03
2018-12-17T01:55:15.935Z,0.06
2018-12-17T01:57:44.419Z,0.10
2018-12-17T02:00:12.915Z,0.23
2018-12-17T02:02:41.438Z,0.29
2018-12-17T02:05:09.912Z,0.32
2018-12-17T02:07:38.413Z,0.28
2018-12-17T02:10:07.039Z,0.36
2018-12-17T02:12:35.534Z,0.41
2018-12-17T02:15:04.484Z,0.42
2018-12-17T02:17:32.993Z,0.30
2018-12-17T02:20:01.490Z,0.42
2018-12-17T02:22:29.967Z,0.43
2018-12-17T02:24:58.420Z,0.46
2018-12-17T02:27:26.916Z,0.42
2018-12-17T02:29:55.410Z,0.49
2018-12-17T02:32:23.888Z,0.49
2018-12-17T02:34:52.339Z,0.54
2018-12-17T02:37:20.835Z,0.56
2018-12-17T02:39:49.318Z,0.53
2018-12-17T02:42:17.891Z,0.54
2018-12-17T02:44:46.350Z,0.57
2018-12-17T02:47:14.858Z,0.55
2018-12-17T02:49:43.339Z,0.59
2018-12-17T02:52:11.850Z,0.60
2018-12-17T02:54:40.810Z,0.60
2018-12-17T02:57:09.291Z,0.61
2018-12-17T02:59:37.749Z,0.63
2018-12-17T03:02:06.252Z,0.63
2018-12-17T03:04:34.692Z,0.64
2018-12-17T03:07:03.208Z,0.65
2018-12-17T03:09:31.658Z,0.68
2018-12-17T03:12:00.159Z,0.67
2018-12-17T03:14:28.665Z,0.69
2018-12-17T03:16:57.150Z,0.69
2018-12-17T03:19:25.638Z,0.65
2018-12-17T03:21:54.166Z,0.59
2018-12-17T03:24:22.653Z,0.59
2018-12-17T03:26:51.302Z,0.55
2018-12-17T03:29:19.802Z,0.56
2018-12-17T03:33:12.677Z,0.57
2018-12-17T03:35:41.168Z,0.50
2018-12-17T03:38:09.654Z,0.40
2018-12-17T03:40:38.088Z,0.46
2018-12-17T03:43:06.614Z,0.49
2018-12-17T03:45:35.080Z,0.50
2018-12-17T03:48:03.765Z,0.49
2018-12-17T03:50:32.244Z,0.38
2018-12-17T03:53:00.733Z,0.40
2018-12-17T03:55:29.173Z,0.37
2018-12-17T03:57:57.664Z,0.44
2018-12-17T04:00:26.128Z,0.48
2018-12-17T04:02:54.656Z,0.56
2018-12-17T04:05:23.183Z,0.62
2018-12-17T04:07:51.663Z,0.66
2018-12-17T04:10:20.138Z,0.71
2018-12-17T04:12:48.979Z,0.66
2018-12-17T04:15:17.514Z,0.61
2018-12-17T04:17:45.965Z,0.47
2018-12-17T04:20:14.399Z,0.53
2018-12-17T04:22:42.902Z,0.50
2018-12-17T04:25:11.394Z,0.32
2018-12-17T04:27:39.885Z,0.27
2018-12-17T04:30:08.605Z,0.26
2018-12-17T04:32:37.123Z,0.24
2018-12-17T04:35:06.077Z,0.22
2018-12-17T04:37:34.590Z,0.28
2018-12-17T04:40:03.181Z,0.37
2018-12-17T04:42:31.668Z,0.39
2018-12-17T04:45:00.112Z,0.39
2018-12-17T04:47:28.630Z,0.36
2018-12-17T04:49:57.088Z,0.28
2018-12-17T04:52:25.582Z,0.26
2018-12-17T04:54:54.139Z,0.28
2018-12-17T04:57:22.621Z,0.24
2018-12-17T04:59:51.108Z,0.24
2018-12-17T05:02:19.667Z,0.36
2018-12-17T05:04:48.223Z,0.42
2018-12-17T05:07:16.704Z,0.41
2018-12-17T05:09:45.164Z,0.44
2018-12-17T05:12:13.643Z,0.51
2018-12-17T05:14:42.116Z,0.54
2018-12-17T05:17:10.620Z,0.48
2018-12-17T05:19:39.064Z,0.40
2018-12-17T05:22:07.563Z,0.43
2018-12-17T05:24:36.017Z,0.39
2018-12-17T05:27:04.521Z,0.34
2018-12-17T05:29:32.999Z,0.33
2018-12-17T05:32:01.501Z,0.24
2018-12-17T05:34:29.997Z,0.15
2018-12-17T05:36:58.479Z,0.18
2018-12-17T05:39:26.968Z,0.25
2018-12-17T05:41:55.467Z,0.21
2018-12-17T05:44:23.937Z,0.24
2018-12-17T05:46:52.445Z,0.16
2018-12-17T05:49:20.897Z,0.32
2018-12-17T05:51:49.434Z,0.36
2018-12-17T05:54:17.876Z,0.33
2018-12-17T05:56:46.353Z,0.32
2018-12-17T05:59:14.908Z,0.36
2018-12-17T06:01:43.444Z,0.38
2018-12-17T06:04:11.957Z,0.38
2018-12-17T06:06:40.446Z,0.38
2018-12-17T06:09:12.246Z,0.38
2018-12-17T06:11:40.984Z,0.39
2018-12-17T06:14:09.478Z,0.36
2018-12-17T06:16:37.945Z,0.41
2018-12-17T06:19:06.468Z,0.37
2018-12-17T06:21:34.938Z,0.32
2018-12-17T06:24:03.580Z,0.29
2018-12-17T06:26:32.018Z,0.32
2018-12-17T06:29:00.716Z,0.31
2018-12-17T06:31:29.873Z,0.37
2018-12-17T06:33:58.450Z,0.39
2018-12-17T06:36:26.963Z,0.39
2018-12-17T06:38:56.282Z,0.39
2018-12-17T06:41:24.924Z,0.42
2018-12-17T06:43:53.408Z,0.46
2018-12-17T06:46:21.858Z,0.47
2018-12-17T06:48:50.342Z,0.40
2018-12-17T06:51:21.135Z,0.40
2018-12-17T06:53:49.654Z,0.41
2018-12-17T06:56:18.100Z,0.43
2018-12-17T06:58:46.552Z,0.39
2018-12-17T07:01:15.007Z,0.40
2018-12-17T07:03:43.478Z,0.43
2018-12-17T07:06:11.912Z,0.42
2018-12-17T07:08:40.349Z,0.44
2018-12-17T07:11:08.779Z,0.47
2018-12-17T07:13:37.275Z,0.44
2018-12-17T07:16:05.844Z,0.46
2018-12-17T07:18:34.324Z,0.42
2018-12-17T07:21:02.764Z,0.42
2018-12-17T07:23:31.252Z,0.43
2018-12-17T07:25:59.708Z,0.38
2018-12-17T07:28:28.176Z,0.39
2018-12-17T07:30:56.621Z,0.41
2018-12-17T07:33:25.136Z,0.42
2018-12-17T07:35:53.593Z,0.49
2018-12-17T07:38:22.076Z,0.53
2018-12-17T07:40:50.510Z,0.60
2018-12-17T07:43:19.010Z,0.69
2018-12-17T07:45:47.450Z,0.76
2018-12-17T07:48:15.923Z,0.79
2018-12-17T07:50:44.674Z,0.86
2018-12-17T07:53:13.166Z,0.92
2018-12-17T07:55:41.635Z,0.93
2018-12-17T07:58:10.137Z,1.03
2018-12-17T08:00:38.667Z,1.07
2018-12-17T08:03:07.158Z,1.14
2018-12-17T08:05:35.601Z,1.25
2018-12-17T08:08:04.127Z,1.35
2018-12-17T08:10:32.601Z,1.41
2018-12-17T08:13:01.237Z,1.47
2018-12-17T08:15:29.744Z,1.47
2018-12-17T08:18:09.485Z,1.60
2018-12-17T08:20:38.000Z,1.61
2018-12-17T08:23:06.568Z,1.58
2018-12-17T08:25:35.051Z,1.61
2018-12-17T08:28:03.557Z,1.72
2018-12-17T08:30:32.008Z,1.78
2018-12-17T08:33:00.489Z,1.83
2018-12-17T08:35:29.000Z,1.89
2018-12-17T08:37:57.553Z,2.00
2018-12-17T08:40:26.001Z,2.02
2018-12-17T08:42:54.491Z,2.14
2018-12-17T08:45:22.948Z,2.17
2018-12-17T08:47:51.516Z,2.17
2018-12-17T08:50:20.121Z,2.21
2018-12-17T08:52:48.636Z,2.31
2018-12-17T08:55:17.095Z,2.22
2018-12-17T08:57:45.551Z,2.11
2018-12-17T09:00:14.278Z,2.05
2018-12-17T09:02:42.753Z,2.00
2018-12-17T09:05:11.379Z,1.95
2018-12-17T09:07:39.854Z,2.01
2018-12-17T09:10:08.927Z,1.99
2018-12-17T09:12:37.365Z,2.06
2018-12-17T09:15:06.225Z,2.00
2018-12-17T09:17:34.701Z,2.06
2018-12-17T09:20:03.363Z,1.98
2018-12-17T09:22:31.844Z,1.74
2018-12-17T09:25:00.427Z,1.77
2018-12-17T09:27:29.023Z,1.68
2018-12-17T09:29:57.492Z,1.59
2018-12-17T09:32:26.099Z,1.62
2018-12-17T09:34:54.610Z,1.63
2018-12-17T09:37:23.068Z,1.63
2018-12-17T09:39:51.582Z,1.70
2018-12-17T09:42:20.035Z,1.66
2018-12-17T09:44:48.530Z,1.64
2018-12-17T09:47:17.023Z,1.64
2018-12-17T09:49:45.502Z,1.64
2018-12-17T09:52:13.965Z,1.59
2018-12-17T09:54:42.430Z,1.60
2018-12-17T09:57:11.007Z,1.66
2018-12-17T09:59:39.544Z,1.64
2018-12-17T10:02:07.995Z,1.56
2018-12-17T10:04:36.458Z,1.58
2018-12-17T10:07:04.923Z,1.57
2018-12-17T10:09:33.392Z,1.65
2018-12-17T10:12:01.874Z,1.71
2018-12-17T10:14:30.427Z,1.81
2018-12-17T10:16:58.913Z,1.89
2018-12-17T10:19:27.456Z,1.86
2018-12-17T10:21:55.895Z,1.97
2018-12-17T10:24:24.367Z,2.01
2018-12-17T10:26:52.816Z,2.10
2018-12-17T10:29:21.312Z,2.21
2018-12-17T10:31:49.759Z,2.40
2018-12-17T10:34:18.271Z,2.37
2018-12-17T10:36:46.811Z,2.31
2018-12-17T10:39:15.306Z,2.39
2018-12-17T10:41:43.760Z,2.47
2018-12-17T10:44:12.226Z,2.53
2018-12-17T10:46:40.713Z,2.48
2018-12-17T10:49:09.147Z,2.35
2018-12-17T10:51:37.698Z,2.49
2018-12-17T10:54:06.206Z,2.37
2018-12-17T10:56:34.832Z,2.17
2018-12-17T10:59:03.336Z,2.13
2018-12-17T11:01:37.397Z,2.16
2018-12-17T11:04:13.636Z,2.26
2018-12-17T11:06:42.151Z,2.43
2018-12-17T11:09:10.927Z,2.62
2018-12-17T11:11:39.429Z,2.53
2018-12-17T11:14:07.926Z,2.63
2018-12-17T11:16:36.477Z,2.63
2018-12-17T11:19:04.932Z,2.78
2018-12-17T11:21:33.531Z,2.76
2018-12-17T11:24:01.990Z,2.75
2018-12-17T11:26:30.470Z,2.94
2018-12-17T11:28:58.944Z,2.94
2018-12-17T11:31:28.314Z,3.15
2018-12-17T11:33:56.792Z,3.17
2018-12-17T11:36:25.336Z,3.02
2018-12-17T11:38:53.785Z,2.90
2018-12-17T11:41:22.284Z,2.84
2018-12-17T11:43:50.719Z,2.84
2018-12-17T11:46:19.225Z,2.69
2018-12-17T11:48:48.044Z,2.62
2018-12-17T11:51:16.529Z,2.63
2018-12-17T11:53:44.988Z,2.56
2018-12-17T11:56:13.518Z,2.43
2018-12-17T11:58:41.986Z,2.34
2018-12-17T12:01:11.411Z,2.26
2018-12-17T12:03:42.298Z,2.37
2018-12-17T12:06:14.145Z,2.48
2018-12-17T12:08:41.271Z,2.51
2018-12-17T12:11:09.736Z,2.67
2018-12-17T12:13:38.246Z,2.88
2018-12-17T12:16:06.706Z,3.01
2018-12-17T12:18:35.172Z,3.11
2018-12-17T12:21:03.641Z,3.17
2018-12-17T12:23:32.124Z,3.17
2018-12-17T12:26:00.602Z,2.99
2018-12-17T12:28:29.099Z,2.98
2018-12-17T12:31:00.513Z,2.80
2018-12-17T12:33:28.069Z,2.56
2018-12-17T12:35:56.511Z,2.49
2018-12-17T12:38:25.420Z,2.36
2018-12-17T12:40:53.911Z,2.19
2018-12-17T12:43:22.408Z,2.18
2018-12-17T12:45:50.860Z,2.02
2018-12-17T12:48:19.339Z,1.95
2018-12-17T12:50:47.775Z,2.00
2018-12-17T12:53:16.372Z,2.04
2018-12-17T12:55:44.894Z,2.06
2018-12-17T12:59:37.866Z,2.05
2018-12-17T13:02:06.410Z,2.05
2018-12-17T13:04:34.915Z,2.12
2018-12-17T13:07:03.377Z,2.17
2018-12-17T13:09:31.906Z,2.17
2018-12-17T13:12:00.380Z,2.12
2018-12-17T13:14:28.910Z,2.12
2018-12-17T13:16:57.376Z,2.12
2018-12-17T13:19:25.851Z,2.13
2018-12-17T13:21:54.299Z,2.13
2018-12-17T13:24:22.773Z,2.09
2018-12-17T13:26:51.244Z,1.99
2018-12-17T13:29:19.727Z,1.99
2018-12-17T13:31:48.227Z,2.10
2018-12-17T13:34:16.708Z,2.15
2018-12-17T13:36:45.127Z,2.25
2018-12-17T13:39:13.620Z,2.25
2018-12-17T13:41:42.317Z,2.22
2018-12-17T13:44:10.891Z,2.10
2018-12-17T13:46:39.340Z,1.98
2018-12-17T13:49:07.950Z,1.93
2018-12-17T13:51:38.412Z,1.87
2018-12-17T13:54:07.092Z,1.77
2018-12-17T13:56:35.523Z,1.68
2018-12-17T13:59:04.207Z,1.66
2018-12-17T14:01:33.705Z,1.70
2018-12-17T14:04:02.301Z,1.73
2018-12-17T14:06:30.880Z,1.75
2018-12-17T14:08:59.335Z,1.69
2018-12-17T14:11:27.849Z,1.63
2018-12-17T14:13:56.335Z,1.66
2018-12-17T14:16:30.064Z,1.70
2018-12-17T14:19:03.704Z,1.67
2018-12-17T14:22:07.027Z,1.63
2018-12-17T14:24:35.628Z,1.56
2018-12-17T14:27:04.220Z,1.66
2018-12-17T14:29:32.723Z,1.65
2018-12-17T14:32:01.201Z,1.68
2018-12-17T14:34:29.703Z,1.72
2018-12-17T14:36:58.175Z,1.78
2018-12-17T14:39:26.627Z,1.76
2018-12-17T14:41:55.121Z,1.76
2018-12-17T14:44:28.794Z,1.77
2018-12-17T14:46:59.699Z,1.73
2018-12-17T14:49:28.332Z,1.83
2018-12-17T14:51:56.832Z,1.82
2018-12-17T14:54:25.399Z,1.83
2018-12-17T14:56:53.897Z,1.80
2018-12-17T14:59:22.365Z,1.84
2018-12-17T15:01:50.870Z,1.81
2018-12-17T15:04:20.348Z,1.78
2018-12-17T15:06:48.842Z,1.79
2018-12-17T15:09:17.303Z,1.86
2018-12-17T15:11:45.772Z,1.87
2018-12-17T15:14:14.275Z,1.79
2018-12-17T15:16:42.755Z,1.77
2018-12-17T15:19:11.209Z,1.74
2018-12-17T15:24:32.890Z,1.73
2018-12-17T15:27:01.348Z,1.68
2018-12-17T15:29:29.762Z,1.76
2018-12-17T15:31:58.209Z,1.79
2018-12-17T15:34:26.762Z,1.77
2018-12-17T15:36:55.301Z,1.83
2018-12-17T15:39:23.960Z,1.84
2018-12-17T15:41:52.642Z,1.95
2018-12-17T15:44:21.091Z,1.91
2018-12-17T15:46:49.547Z,1.95
2018-12-17T15:49:17.951Z,1.99
2018-12-17T15:51:46.873Z,1.94
2018-12-17T15:57:07.760Z,1.89
2018-12-17T15:59:36.821Z,1.90
2018-12-17T16:02:05.450Z,1.95
2018-12-17T16:04:33.941Z,1.89
2018-12-17T16:07:02.401Z,1.86
2018-12-17T16:09:30.837Z,1.87
2018-12-17T16:11:59.286Z,1.86
2018-12-17T16:14:27.773Z,1.75
2018-12-17T16:16:56.248Z,1.63
2018-12-17T16:19:24.679Z,1.59
2018-12-17T16:21:53.240Z,1.56
2018-12-17T16:24:21.678Z,1.49
2018-12-17T16:26:50.238Z,1.50
2018-12-17T16:29:18.706Z,1.48
2018-12-17T16:31:47.329Z,1.53
2018-12-17T16:34:15.760Z,1.49
2018-12-17T16:36:44.500Z,1.48
2018-12-17T16:39:13.042Z,1.55
2018-12-17T16:41:41.499Z,1.61
2018-12-17T16:44:09.932Z,1.62
2018-12-17T16:46:40.568Z,1.63
2018-12-17T16:49:09.215Z,1.62
2018-12-17T16:51:37.732Z,1.62
2018-12-17T16:54:06.172Z,1.66
2018-12-17T16:56:34.602Z,1.61
2018-12-17T16:59:03.083Z,1.62
2018-12-17T17:01:31.630Z,1.65
2018-12-17T17:04:00.107Z,1.65
2018-12-17T17:06:28.648Z,1.54
2018-12-17T17:08:58.852Z,1.48
2018-12-17T17:11:27.767Z,1.44
2018-12-17T17:13:56.278Z,1.45
2018-12-17T17:16:24.765Z,1.40
2018-12-17T17:18:53.234Z,1.39
2018-12-17T17:21:21.869Z,1.42
2018-12-17T17:23:50.374Z,1.45
2018-12-17T17:26:18.835Z,1.51
2018-12-17T17:28:47.429Z,1.55
2018-12-17T17:31:15.987Z,1.54
2018-12-17T17:33:44.480Z,1.55
2018-12-17T17:36:12.938Z,1.54
2018-12-17T17:38:41.419Z,1.60
2018-12-17T17:41:09.911Z,1.66
2018-12-17T17:43:38.484Z,1.71
2018-12-17T17:46:06.921Z,1.67
2018-12-17T17:48:35.572Z,1.63
2018-12-17T17:51:04.168Z,1.59
2018-12-17T17:53:32.661Z,1.57
2018-12-17T17:56:01.108Z,1.57
2018-12-17T17:58:29.824Z,1.53
2018-12-17T18:00:58.387Z,1.50
2018-12-17T18:03:26.863Z,1.52
2018-12-17T18:05:55.349Z,1.54
2018-12-17T18:08:23.895Z,1.53
2018-12-17T18:10:52.343Z,1.55
2018-12-17T18:13:20.847Z,1.56
2018-12-17T18:15:49.310Z,1.60
2018-12-17T18:18:17.792Z,1.50
2018-12-17T18:20:46.239Z,1.43
2018-12-17T18:23:14.799Z,1.40
2018-12-17T18:25:43.260Z,1.35
2018-12-17T18:28:12.787Z,1.32
2018-12-17T18:30:41.293Z,1.30
2018-12-17T18:33:09.821Z,1.30
2018-12-17T18:35:38.275Z,1.25
2018-12-17T18:38:06.776Z,1.27
2018-12-17T18:40:35.342Z,1.29
2018-12-17T18:43:04.024Z,1.29
2018-12-17T18:45:33.098Z,1.28
2018-12-17T18:48:01.577Z,1.24
2018-12-17T18:50:30.298Z,1.27
2018-12-17T18:52:59.273Z,1.26
2018-12-17T18:55:27.773Z,1.28
2018-12-17T18:57:56.256Z,1.28
2018-12-17T19:00:24.975Z,1.27
2018-12-17T19:02:53.558Z,1.28
2018-12-17T19:05:22.091Z,1.29
2018-12-17T19:07:50.545Z,1.34
2018-12-17T19:10:19.097Z,1.38
2018-12-17T19:12:47.638Z,1.38
2018-12-17T19:15:16.108Z,1.37
2018-12-17T19:17:44.732Z,1.37
2018-12-17T19:20:13.313Z,1.35
2018-12-17T19:22:41.865Z,1.40
2018-12-17T19:25:10.399Z,1.43
2018-12-17T19:27:38.851Z,1.41
2018-12-17T19:30:08.309Z,1.36
2018-12-17T19:32:40.231Z,1.34
2018-12-17T19:35:07.370Z,1.31
2018-12-17T19:37:35.819Z,1.32
2018-12-17T19:40:05.026Z,1.35
2018-12-17T19:42:33.465Z,1.36
2018-12-17T19:45:01.956Z,1.34
2018-12-17T19:47:30.399Z,1.33
2018-12-17T19:49:58.892Z,1.40
2018-12-17T19:52:27.337Z,1.40
2018-12-17T19:54:55.957Z,1.40
2018-12-17T19:57:24.435Z,1.42
2018-12-17T19:59:52.924Z,1.39
2018-12-17T20:02:21.383Z,1.40
2018-12-17T20:04:49.877Z,1.39
2018-12-17T20:07:18.365Z,1.38
2018-12-17T20:09:46.863Z,1.36
2018-12-17T20:12:15.336Z,1.35
2018-12-17T20:14:43.841Z,1.40
2018-12-17T20:17:12.402Z,1.41
2018-12-17T20:19:40.897Z,1.39
2018-12-17T20:22:09.364Z,1.37
2018-12-17T20:24:37.869Z,1.38
2018-12-17T20:27:06.328Z,1.39
2018-12-17T20:29:34.833Z,1.38
2018-12-17T20:32:03.492Z,1.36
2018-12-17T20:34:31.973Z,1.36
2018-12-17T20:37:00.428Z,1.40
2018-12-17T20:39:28.956Z,1.39
2018-12-17T20:41:57.551Z,1.38
2018-12-17T20:44:26.053Z,1.32
2018-12-17T20:46:54.602Z,1.21
2018-12-17T20:49:23.093Z,1.20
2018-12-17T20:51:51.531Z,1.21
2018-12-17T20:54:20.068Z,1.16
2018-12-17T20:56:48.517Z,1.21
2018-12-17T20:59:17.079Z,1.24
2018-12-17T21:01:45.559Z,1.28
2018-12-17T21:04:14.052Z,1.20
2018-12-17T21:06:42.491Z,1.18
2018-12-17T21:09:10.952Z,1.11
2018-12-17T21:11:39.399Z,1.10
2018-12-17T21:14:07.892Z,1.11
2018-12-17T21:16:36.315Z,1.09
2018-12-17T21:19:04.829Z,1.08
2018-12-17T21:21:33.276Z,1.13
2018-12-17T21:24:01.776Z,1.15
2018-12-17T21:26:30.311Z,1.20
2018-12-17T21:28:58.791Z,1.18
2018-12-17T21:31:27.308Z,1.14
2018-12-17T21:33:55.823Z,1.17
2018-12-17T21:36:24.271Z,1.15
2018-12-17T21:38:52.789Z,1.19
2018-12-17T21:41:21.227Z,1.20
2018-12-17T21:43:49.679Z,1.19
2018-12-17T21:46:18.151Z,1.13
2018-12-17T21:48:46.658Z,1.13
2018-12-17T21:51:15.092Z,1.12
2018-12-17T21:53:43.547Z,1.13
2018-12-17T21:56:12.033Z,1.09
2018-12-17T21:58:40.507Z,1.14
2018-12-17T22:01:08.979Z,1.19
2018-12-17T22:03:37.475Z,1.22
2018-12-17T22:06:05.941Z,1.21
2018-12-17T22:08:34.390Z,1.20
2018-12-17T22:11:02.874Z,1.22
2018-12-17T22:13:31.355Z,1.25
2018-12-17T22:15:59.834Z,1.28
2018-12-17T22:18:28.360Z,1.30
2018-12-17T22:20:56.835Z,1.29
2018-12-17T22:23:25.317Z,1.31
2018-12-17T22:25:53.851Z,1.31
2018-12-17T22:28:22.306Z,1.32
2018-12-17T22:30:50.819Z,1.29
2018-12-17T22:33:19.979Z,1.37
2018-12-17T22:35:48.692Z,1.41
2018-12-17T22:38:17.143Z,1.44
2018-12-17T22:40:45.918Z,1.48
2018-12-17T22:43:14.441Z,1.44
2018-12-17T22:45:42.933Z,1.41
2018-12-17T22:48:11.368Z,1.43
2018-12-17T22:50:39.829Z,1.41
2018-12-17T22:53:08.275Z,1.35
2018-12-17T22:55:36.738Z,1.30
2018-12-17T22:58:05.196Z,1.31
2018-12-17T23:00:33.787Z,1.36
2018-12-17T23:03:02.238Z,1.41
2018-12-17T23:05:30.753Z,1.47
2018-12-17T23:07:59.198Z,1.52
2018-12-17T23:10:44.670Z,1.55
2018-12-17T23:13:24.371Z,1.58
2018-12-17T23:16:04.130Z,1.51
2018-12-17T23:18:31.515Z,1.53
2018-12-17T23:21:00.228Z,1.46
2018-12-17T23:23:29.054Z,1.59
2018-12-17T23:25:57.645Z,1.63
2018-12-17T23:28:26.212Z,1.62
2018-12-17T23:30:54.675Z,1.57
2018-12-17T23:33:23.244Z,1.60
2018-12-17T23:35:51.744Z,1.70
2018-12-17T23:38:20.205Z,1.68
2018-12-17T23:40:48.699Z,1.59
2018-12-17T23:43:17.266Z,1.55
2018-12-17T23:45:45.754Z,1.48
2018-12-17T23:48:14.213Z,1.49
2018-12-17T23:50:43.961Z,1.50
2018-12-17T23:53:12.420Z,1.51
2018-12-17T23:55:40.903Z,1.49
2018-12-17T23:58:09.334Z,1.41
